sensor_id;sensor_type;location;lat;lon;timestamp;pressure;altitude;pressure_sealevel;temperature;humidity
49583;BME280;36329;48.816;44.624;2023-04-09T00:02:08;101947;;;5.9;67.6
49583;BME280;36329;48.816;44.624;2023-04-09T00:05:10;101958;;;5.9;67.5
49583;BME280;36329;48.816;44.624;2023-04-09T00:08:12;101953;;;5.7;67.6
49583;BME280;36329;48.816;44.624;2023-04-09T00:11:14;101953;;;5.5;68.3
49583;BME280;36329;48.816;44.624;2023-04-09T00:14:17;101948;;;5.3;69.5
49583;BME280;36329;48.816;44.624;2023-04-09T00:17:19;101951;;;5.2;69.8
49583;BME280;36329;48.816;44.624;2023-04-09T00:20:21;101950;;;5.2;69.7
49583;BME280;36329;48.816;44.624;2023-04-09T00:23:23;101948;;;5.2;69.9
49583;BME280;36329;48.816;44.624;2023-04-09T00:26:25;101947;;;5;70.3
49583;BME280;36329;48.816;44.624;2023-04-09T00:29:27;101948;;;4.9;71.6
49583;BME280;36329;48.816;44.624;2023-04-09T00:32:30;101949;;;4.8;71.8
49583;BME280;36329;48.816;44.624;2023-04-09T00:35:32;101944;;;4.8;71.8
49583;BME280;36329;48.816;44.624;2023-04-09T00:38:34;101942;;;4.8;71.7
49583;BME280;36329;48.816;44.624;2023-04-09T00:41:37;101946;;;4.7;71.6
49583;BME280;36329;48.816;44.624;2023-04-09T00:44:38;101944;;;4.6;72.3
49583;BME280;36329;48.816;44.624;2023-04-09T00:47:42;101943;;;4.7;72
49583;BME280;36329;48.816;44.624;2023-04-09T00:50:44;101946;;;4.8;71.4
49583;BME280;36329;48.816;44.624;2023-04-09T00:53:46;101942;;;4.7;72
49583;BME280;36329;48.816;44.624;2023-04-09T00:56:49;101945;;;4.6;72.1
49583;BME280;36329;48.816;44.624;2023-04-09T00:59:52;101949;;;4.6;72.3
49583;BME280;36329;48.816;44.624;2023-04-09T01:02:55;101947;;;4.7;72
49583;BME280;36329;48.816;44.624;2023-04-09T01:06:03;101953;;;4.7;71.7
49583;BME280;36329;48.816;44.624;2023-04-09T01:09:11;101948;;;4.7;71.7
49583;BME280;36329;48.816;44.624;2023-04-09T01:12:30;101951;;;4.6;72.2
49583;BME280;36329;48.816;44.624;2023-04-09T01:15:40;101947;;;4.4;72.9
49583;BME280;36329;48.816;44.624;2023-04-09T01:18:49;101955;;;4.3;73.6
49583;BME280;36329;48.816;44.624;2023-04-09T01:21:54;101952;;;4.4;73.3
49583;BME280;36329;48.816;44.624;2023-04-09T01:25:08;101957;;;4.6;72.7
49583;BME280;36329;48.816;44.624;2023-04-09T01:28:18;101957;;;4.8;71.2
49583;BME280;36329;48.816;44.624;2023-04-09T01:31:26;101955;;;4.9;70.9
49583;BME280;36329;48.816;44.624;2023-04-09T01:34:29;101954;;;4.7;71.2
49583;BME280;36329;48.816;44.624;2023-04-09T01:37:32;101960;;;4.4;72.5
49583;BME280;36329;48.816;44.624;2023-04-09T01:40:35;101959;;;4.3;73.5
49583;BME280;36329;48.816;44.624;2023-04-09T01:43:37;101964;;;4.5;72.3
49583;BME280;36329;48.816;44.624;2023-04-09T01:46:41;101963;;;4.5;72.1
49583;BME280;36329;48.816;44.624;2023-04-09T01:49:44;101970;;;4.4;71.7
49583;BME280;36329;48.816;44.624;2023-04-09T01:52:47;101968;;;4.1;72.5
49583;BME280;36329;48.816;44.624;2023-04-09T01:55:49;101969;;;4;73.4
49583;BME280;36329;48.816;44.624;2023-04-09T01:58:51;101964;;;3.9;73.6
49583;BME280;36329;48.816;44.624;2023-04-09T02:01:58;101968;;;3.9;73.7
49583;BME280;36329;48.816;44.624;2023-04-09T02:05:06;101963;;;3.9;73.3
49583;BME280;36329;48.816;44.624;2023-04-09T02:08:13;101962;;;3.8;73.8
49583;BME280;36329;48.816;44.624;2023-04-09T02:11:20;101964;;;3.9;73.3
49583;BME280;36329;48.816;44.624;2023-04-09T02:14:25;101965;;;4;72.8
49583;BME280;36329;48.816;44.624;2023-04-09T02:17:28;101971;;;3.9;72.4
49583;BME280;36329;48.816;44.624;2023-04-09T02:20:30;101972;;;4;72.5
49583;BME280;36329;48.816;44.624;2023-04-09T02:23:32;101969;;;3.9;72.3
49583;BME280;36329;48.816;44.624;2023-04-09T02:26:34;101971;;;4;71.9
49583;BME280;36329;48.816;44.624;2023-04-09T02:29:37;101978;;;4.3;70.7
49583;BME280;36329;48.816;44.624;2023-04-09T02:32:39;101980;;;4.4;69.8
49583;BME280;36329;48.816;44.624;2023-04-09T02:35:41;101988;;;4.2;70.1
49583;BME280;36329;48.816;44.624;2023-04-09T02:38:44;101998;;;4.3;69.8
49583;BME280;36329;48.816;44.624;2023-04-09T02:41:46;102005;;;4.4;68.9
49583;BME280;36329;48.816;44.624;2023-04-09T02:44:47;102010;;;4.4;68.9
49583;BME280;36329;48.816;44.624;2023-04-09T02:47:49;102005;;;4.4;68.7
49583;BME280;36329;48.816;44.624;2023-04-09T02:50:52;102006;;;4.4;68.5
49583;BME280;36329;48.816;44.624;2023-04-09T02:53:54;102006;;;4.3;68.9
49583;BME280;36329;48.816;44.624;2023-04-09T02:56:56;102003;;;4;70.6
49583;BME280;36329;48.816;44.624;2023-04-09T02:59:58;102002;;;4;70.2
49583;BME280;36329;48.816;44.624;2023-04-09T03:03:00;102004;;;4.3;69.6
49583;BME280;36329;48.816;44.624;2023-04-09T03:06:02;102007;;;4.5;68.1
49583;BME280;36329;48.816;44.624;2023-04-09T03:09:04;102005;;;4.3;68.6
49583;BME280;36329;48.816;44.624;2023-04-09T03:12:06;102006;;;4.3;69
49583;BME280;36329;48.816;44.624;2023-04-09T03:15:09;102008;;;4.4;68.5
49583;BME280;36329;48.816;44.624;2023-04-09T03:18:11;102010;;;4.8;67.1
49583;BME280;36329;48.816;44.624;2023-04-09T03:21:13;102013;;;4.7;67.2
49583;BME280;36329;48.816;44.624;2023-04-09T03:24:16;102016;;;4.9;66.9
49583;BME280;36329;48.816;44.624;2023-04-09T03:27:18;102017;;;4.9;66.5
49583;BME280;36329;48.816;44.624;2023-04-09T03:30:20;102016;;;5;65.9
49583;BME280;36329;48.816;44.624;2023-04-09T03:33:23;102015;;;5.2;65.8
49583;BME280;36329;48.816;44.624;2023-04-09T03:36:25;102018;;;5.4;65
49583;BME280;36329;48.816;44.624;2023-04-09T03:39:27;102020;;;5.4;64.8
49583;BME280;36329;48.816;44.624;2023-04-09T03:42:29;102024;;;5.7;64
49583;BME280;36329;48.816;44.624;2023-04-09T03:45:31;102024;;;5.8;63.7
49583;BME280;36329;48.816;44.624;2023-04-09T03:48:33;102019;;;5.8;64
49583;BME280;36329;48.816;44.624;2023-04-09T03:51:35;102031;;;5.9;63.4
49583;BME280;36329;48.816;44.624;2023-04-09T03:54:37;102028;;;6;63
49583;BME280;36329;48.816;44.624;2023-04-09T03:57:39;102034;;;5.9;62.5
49583;BME280;36329;48.816;44.624;2023-04-09T04:00:41;102034;;;6.1;62.4
49583;BME280;36329;48.816;44.624;2023-04-09T04:03:43;102030;;;6.3;62.2
49583;BME280;36329;48.816;44.624;2023-04-09T04:06:45;102031;;;6.5;61.5
49583;BME280;36329;48.816;44.624;2023-04-09T04:09:47;102031;;;6.6;61.1
49583;BME280;36329;48.816;44.624;2023-04-09T04:12:50;102035;;;6.7;61.1
49583;BME280;36329;48.816;44.624;2023-04-09T04:15:52;102033;;;6.6;60.7
49583;BME280;36329;48.816;44.624;2023-04-09T04:18:54;102031;;;6.6;60.7
49583;BME280;36329;48.816;44.624;2023-04-09T04:21:56;102037;;;6.8;59.8
49583;BME280;36329;48.816;44.624;2023-04-09T04:24:58;102030;;;7.2;59.5
49583;BME280;36329;48.816;44.624;2023-04-09T04:28:00;102032;;;7.5;57.4
49583;BME280;36329;48.816;44.624;2023-04-09T04:31:07;102035;;;7.6;56.2
49583;BME280;36329;48.816;44.624;2023-04-09T04:34:09;102038;;;7.7;56.9
49583;BME280;36329;48.816;44.624;2023-04-09T04:37:12;102036;;;7.8;54.9
49583;BME280;36329;48.816;44.624;2023-04-09T04:40:14;102018;;;7.7;55
49583;BME280;36329;48.816;44.624;2023-04-09T04:43:16;102035;;;7.9;55.2
49583;BME280;36329;48.816;44.624;2023-04-09T04:46:18;102030;;;8.2;54.2
49583;BME280;36329;48.816;44.624;2023-04-09T04:49:20;102032;;;8.4;52.9
49583;BME280;36329;48.816;44.624;2023-04-09T04:52:23;102036;;;8.6;52.9
49583;BME280;36329;48.816;44.624;2023-04-09T04:55:25;102040;;;8.8;51.6
49583;BME280;36329;48.816;44.624;2023-04-09T04:58:27;102036;;;8.8;50.9
49583;BME280;36329;48.816;44.624;2023-04-09T05:01:29;102039;;;8.7;50.9
49583;BME280;36329;48.816;44.624;2023-04-09T05:04:32;102035;;;8.7;51
49583;BME280;36329;48.816;44.624;2023-04-09T05:07:34;102029;;;9.1;50.5
49583;BME280;36329;48.816;44.624;2023-04-09T05:10:39;102037;;;9.4;50.5
49583;BME280;36329;48.816;44.624;2023-04-09T05:13:41;102041;;;9.3;48.9
49583;BME280;36329;48.816;44.624;2023-04-09T05:16:43;102044;;;9.3;49
49583;BME280;36329;48.816;44.624;2023-04-09T05:19:49;102034;;;9.2;49.7
49583;BME280;36329;48.816;44.624;2023-04-09T05:22:52;102037;;;9.6;48.5
49583;BME280;36329;48.816;44.624;2023-04-09T05:25:54;102037;;;9.7;48.3
49583;BME280;36329;48.816;44.624;2023-04-09T05:28:56;102041;;;9.8;48.2
49583;BME280;36329;48.816;44.624;2023-04-09T05:31:58;102038;;;10.1;47.2
49583;BME280;36329;48.816;44.624;2023-04-09T05:35:00;102044;;;10.3;47.6
49583;BME280;36329;48.816;44.624;2023-04-09T05:38:03;102039;;;10.4;45.5
49583;BME280;36329;48.816;44.624;2023-04-09T05:41:05;102044;;;10.2;46
49583;BME280;36329;48.816;44.624;2023-04-09T05:44:07;102046;;;10.4;45.8
49583;BME280;36329;48.816;44.624;2023-04-09T05:47:09;102044;;;10.7;45.8
49583;BME280;36329;48.816;44.624;2023-04-09T05:50:11;102052;;;10.7;45.1
49583;BME280;36329;48.816;44.624;2023-04-09T05:53:12;102056;;;10.1;45.5
49583;BME280;36329;48.816;44.624;2023-04-09T05:56:15;102058;;;9.9;46.4
49583;BME280;36329;48.816;44.624;2023-04-09T05:59:17;102061;;;9.9;46.7
49583;BME280;36329;48.816;44.624;2023-04-09T06:02:19;102060;;;10.1;46
49583;BME280;36329;48.816;44.624;2023-04-09T06:05:21;102060;;;10.2;45.6
49583;BME280;36329;48.816;44.624;2023-04-09T06:08:22;102062;;;10.5;45.7
49583;BME280;36329;48.816;44.624;2023-04-09T06:11:24;102060;;;10.6;45.1
49583;BME280;36329;48.816;44.624;2023-04-09T06:14:26;102064;;;10.7;44.1
49583;BME280;36329;48.816;44.624;2023-04-09T06:17:28;102068;;;11.1;43.8
49583;BME280;36329;48.816;44.624;2023-04-09T06:20:30;102076;;;11.4;43.7
49583;BME280;36329;48.816;44.624;2023-04-09T06:23:34;102070;;;11.4;42.6
49583;BME280;36329;48.816;44.624;2023-04-09T06:26:36;102072;;;11.4;42.9
49583;BME280;36329;48.816;44.624;2023-04-09T06:29:39;102063;;;11.8;41.6
49583;BME280;36329;48.816;44.624;2023-04-09T06:32:41;102069;;;11.8;40.6
49583;BME280;36329;48.816;44.624;2023-04-09T06:35:43;102074;;;11.7;41.4
49583;BME280;36329;48.816;44.624;2023-04-09T06:38:50;102073;;;12.2;41.1
49583;BME280;36329;48.816;44.624;2023-04-09T06:41:52;102066;;;12.7;40.2
49583;BME280;36329;48.816;44.624;2023-04-09T06:44:54;102069;;;12.7;39.8
49583;BME280;36329;48.816;44.624;2023-04-09T06:47:56;102067;;;12.3;40.2
49583;BME280;36329;48.816;44.624;2023-04-09T06:50:59;102060;;;12.6;40.2
49583;BME280;36329;48.816;44.624;2023-04-09T06:54:01;102056;;;12.8;39.6
49583;BME280;36329;48.816;44.624;2023-04-09T06:57:05;102050;;;13.4;38.3
49583;BME280;36329;48.816;44.624;2023-04-09T07:00:07;102057;;;13.9;37.1
49583;BME280;36329;48.816;44.624;2023-04-09T07:03:10;102052;;;14;36.7
49583;BME280;36329;48.816;44.624;2023-04-09T07:06:12;102052;;;13.8;36.5
49583;BME280;36329;48.816;44.624;2023-04-09T07:09:14;102048;;;14.3;35.7
49583;BME280;36329;48.816;44.624;2023-04-09T07:12:25;102047;;;14.5;34.7
49583;BME280;36329;48.816;44.624;2023-04-09T07:15:28;102041;;;14.6;34.9
49583;BME280;36329;48.816;44.624;2023-04-09T07:18:31;102047;;;15.2;34
49583;BME280;36329;48.816;44.624;2023-04-09T07:21:33;102042;;;15.3;34.2
49583;BME280;36329;48.816;44.624;2023-04-09T07:24:36;102040;;;15.1;33.8
49583;BME280;36329;48.816;44.624;2023-04-09T07:27:38;102033;;;14.9;34.7
49583;BME280;36329;48.816;44.624;2023-04-09T07:30:40;102036;;;15.2;34.7
49583;BME280;36329;48.816;44.624;2023-04-09T07:33:42;102036;;;14.9;35.2
49583;BME280;36329;48.816;44.624;2023-04-09T07:36:45;102034;;;14.7;35.7
49583;BME280;36329;48.816;44.624;2023-04-09T07:39:48;102020;;;15;36.5
49583;BME280;36329;48.816;44.624;2023-04-09T07:42:50;102026;;;15.2;35.3
49583;BME280;36329;48.816;44.624;2023-04-09T07:45:52;102021;;;14.9;36.5
49583;BME280;36329;48.816;44.624;2023-04-09T07:48:55;102021;;;15.5;35.8
49583;BME280;36329;48.816;44.624;2023-04-09T07:51:58;102019;;;15.9;35.6
49583;BME280;36329;48.816;44.624;2023-04-09T07:55:00;102010;;;16;36
49583;BME280;36329;48.816;44.624;2023-04-09T07:58:02;102015;;;15.7;36.4
49583;BME280;36329;48.816;44.624;2023-04-09T08:01:04;102007;;;16;35.9
49583;BME280;36329;48.816;44.624;2023-04-09T08:04:06;102001;;;16.2;36.1
49583;BME280;36329;48.816;44.624;2023-04-09T08:07:08;102003;;;16.8;35.2
49583;BME280;36329;48.816;44.624;2023-04-09T08:10:10;102003;;;16.7;35.1
49583;BME280;36329;48.816;44.624;2023-04-09T08:13:12;102003;;;16.8;35.5
49583;BME280;36329;48.816;44.624;2023-04-09T08:16:15;102000;;;17;35.2
49583;BME280;36329;48.816;44.624;2023-04-09T08:19:17;102003;;;17.5;34.6
49583;BME280;36329;48.816;44.624;2023-04-09T08:22:25;101992;;;17.9;33.9
49583;BME280;36329;48.816;44.624;2023-04-09T08:25:27;101994;;;17.7;34.5
49583;BME280;36329;48.816;44.624;2023-04-09T08:28:29;101990;;;17.8;34
49583;BME280;36329;48.816;44.624;2023-04-09T08:31:32;101989;;;18.1;34
49583;BME280;36329;48.816;44.624;2023-04-09T08:34:34;101990;;;18;33.7
49583;BME280;36329;48.816;44.624;2023-04-09T08:37:36;101990;;;18.2;33.9
49583;BME280;36329;48.816;44.624;2023-04-09T08:40:37;101985;;;17.2;34.1
49583;BME280;36329;48.816;44.624;2023-04-09T08:43:40;101982;;;17.8;34.9
49583;BME280;36329;48.816;44.624;2023-04-09T08:46:42;101983;;;18.5;33
49583;BME280;36329;48.816;44.624;2023-04-09T08:49:43;101984;;;17.9;34
49583;BME280;36329;48.816;44.624;2023-04-09T08:52:46;101977;;;17.5;34.4
49583;BME280;36329;48.816;44.624;2023-04-09T08:55:48;101969;;;17.2;35.7
49583;BME280;36329;48.816;44.624;2023-04-09T08:58:50;101970;;;17.5;34.9
49583;BME280;36329;48.816;44.624;2023-04-09T09:02:05;101972;;;17.8;34.3
49583;BME280;36329;48.816;44.624;2023-04-09T09:05:08;101960;;;17.8;34.4
49583;BME280;36329;48.816;44.624;2023-04-09T09:08:13;101962;;;17.4;35.6
49583;BME280;36329;48.816;44.624;2023-04-09T09:11:24;101964;;;17.9;35.5
49583;BME280;36329;48.816;44.624;2023-04-09T09:14:31;101959;;;18.2;34.9
49583;BME280;36329;48.816;44.624;2023-04-09T09:17:52;101959;;;17.1;35.9
49583;BME280;36329;48.816;44.624;2023-04-09T09:21:08;101957;;;17.4;36.4
49583;BME280;36329;48.816;44.624;2023-04-09T09:24:16;101961;;;17.7;35.8
49583;BME280;36329;48.816;44.624;2023-04-09T09:27:34;101959;;;17.7;35.1
49583;BME280;36329;48.816;44.624;2023-04-09T09:30:37;101963;;;18.1;34.9
49583;BME280;36329;48.816;44.624;2023-04-09T09:33:40;101955;;;18.1;35.3
49583;BME280;36329;48.816;44.624;2023-04-09T09:36:43;101960;;;18.1;35
49583;BME280;36329;48.816;44.624;2023-04-09T09:39:45;101965;;;18;35.4
49583;BME280;36329;48.816;44.624;2023-04-09T09:42:54;101960;;;18.5;35.1
49583;BME280;36329;48.816;44.624;2023-04-09T09:45:57;101959;;;19;34
49583;BME280;36329;48.816;44.624;2023-04-09T09:48:59;101960;;;19.3;32.7
49583;BME280;36329;48.816;44.624;2023-04-09T09:52:04;101964;;;19;33.2
49583;BME280;36329;48.816;44.624;2023-04-09T09:55:12;101963;;;18.5;34.3
49583;BME280;36329;48.816;44.624;2023-04-09T09:58:18;101961;;;17.9;35.1
49583;BME280;36329;48.816;44.624;2023-04-09T10:01:26;101956;;;18.1;35.2
49583;BME280;36329;48.816;44.624;2023-04-09T10:04:32;101957;;;18.3;34.4
49583;BME280;36329;48.816;44.624;2023-04-09T10:07:36;101953;;;18.2;34.2
49583;BME280;36329;48.816;44.624;2023-04-09T10:10:40;101958;;;17.7;35.5
49583;BME280;36329;48.816;44.624;2023-04-09T10:13:49;101953;;;17.5;36.6
49583;BME280;36329;48.816;44.624;2023-04-09T10:16:53;101955;;;17.7;35.6
49583;BME280;36329;48.816;44.624;2023-04-09T10:20:04;101955;;;17.7;35.2
49583;BME280;36329;48.816;44.624;2023-04-09T10:23:14;101951;;;16.8;37
49583;BME280;36329;48.816;44.624;2023-04-09T10:26:23;101946;;;17;36.4
49583;BME280;36329;48.816;44.624;2023-04-09T10:29:27;101941;;;17.4;36
49583;BME280;36329;48.816;44.624;2023-04-09T10:32:34;101941;;;17.3;37.1
49583;BME280;36329;48.816;44.624;2023-04-09T10:35:38;101936;;;17.3;37
49583;BME280;36329;48.816;44.624;2023-04-09T10:38:45;101936;;;17.4;35.9
49583;BME280;36329;48.816;44.624;2023-04-09T10:41:48;101938;;;17.6;36.9
49583;BME280;36329;48.816;44.624;2023-04-09T10:45:07;101931;;;18.1;35.2
49583;BME280;36329;48.816;44.624;2023-04-09T10:48:11;101936;;;17.9;34.7
49583;BME280;36329;48.816;44.624;2023-04-09T10:51:18;101937;;;17.7;35.4
49583;BME280;36329;48.816;44.624;2023-04-09T10:54:37;101937;;;17.6;35.9
49583;BME280;36329;48.816;44.624;2023-04-09T10:57:42;101930;;;18;35.3
49583;BME280;36329;48.816;44.624;2023-04-09T11:00:46;101929;;;18.3;35.1
49583;BME280;36329;48.816;44.624;2023-04-09T11:04:07;101930;;;17.5;35.3
49583;BME280;36329;48.816;44.624;2023-04-09T11:07:12;101922;;;17.5;35.6
49583;BME280;36329;48.816;44.624;2023-04-09T11:10:16;101921;;;17.3;35.1
49583;BME280;36329;48.816;44.624;2023-04-09T11:13:19;101925;;;17.3;35.9
49583;BME280;36329;48.816;44.624;2023-04-09T11:16:22;101920;;;17.6;36
49583;BME280;36329;48.816;44.624;2023-04-09T11:19:24;101915;;;17.1;35.8
49583;BME280;36329;48.816;44.624;2023-04-09T11:22:27;101915;;;17.2;35.8
49583;BME280;36329;48.816;44.624;2023-04-09T11:25:31;101911;;;17.3;36.6
49583;BME280;36329;48.816;44.624;2023-04-09T11:28:34;101911;;;17.1;35.9
49583;BME280;36329;48.816;44.624;2023-04-09T11:31:35;101904;;;17;36.5
49583;BME280;36329;48.816;44.624;2023-04-09T11:34:38;101904;;;17;36.5
49583;BME280;36329;48.816;44.624;2023-04-09T11:37:40;101905;;;17;36.7
49583;BME280;36329;48.816;44.624;2023-04-09T11:40:43;101909;;;16.7;36.3
49583;BME280;36329;48.816;44.624;2023-04-09T11:43:45;101904;;;16.6;36.6
49583;BME280;36329;48.816;44.624;2023-04-09T11:46:47;101902;;;16.1;37.4
49583;BME280;36329;48.816;44.624;2023-04-09T11:49:50;101899;;;16;37.3
49583;BME280;36329;48.816;44.624;2023-04-09T11:52:51;101900;;;16;37.3
49583;BME280;36329;48.816;44.624;2023-04-09T11:55:53;101897;;;15.7;37.8
49583;BME280;36329;48.816;44.624;2023-04-09T11:58:56;101891;;;15.9;38
49583;BME280;36329;48.816;44.624;2023-04-09T12:01:58;101888;;;16.2;37.7
49583;BME280;36329;48.816;44.624;2023-04-09T12:05:02;101887;;;16;37.7
49583;BME280;36329;48.816;44.624;2023-04-09T12:08:07;101887;;;16.2;37.6
49583;BME280;36329;48.816;44.624;2023-04-09T12:11:10;101883;;;15.7;37.7
49583;BME280;36329;48.816;44.624;2023-04-09T12:14:14;101889;;;15.6;37.5
49583;BME280;36329;48.816;44.624;2023-04-09T12:17:19;101887;;;15.6;37.8
49583;BME280;36329;48.816;44.624;2023-04-09T12:20:30;101885;;;15.5;37.9
49583;BME280;36329;48.816;44.624;2023-04-09T12:23:33;101886;;;15.6;37.6
49583;BME280;36329;48.816;44.624;2023-04-09T12:26:35;101887;;;15.3;38.3
49583;BME280;36329;48.816;44.624;2023-04-09T12:29:36;101884;;;15.3;38.4
49583;BME280;36329;48.816;44.624;2023-04-09T12:32:38;101878;;;15.5;38.5
49583;BME280;36329;48.816;44.624;2023-04-09T12:35:40;101882;;;15.4;38.3
49583;BME280;36329;48.816;44.624;2023-04-09T12:38:42;101877;;;15.5;38.2
49583;BME280;36329;48.816;44.624;2023-04-09T12:41:44;101882;;;15.3;38.9
49583;BME280;36329;48.816;44.624;2023-04-09T12:44:46;101879;;;15.4;38.2
49583;BME280;36329;48.816;44.624;2023-04-09T12:47:48;101871;;;15.4;38.2
49583;BME280;36329;48.816;44.624;2023-04-09T12:50:50;101876;;;15.3;38.3
49583;BME280;36329;48.816;44.624;2023-04-09T12:53:52;101878;;;15.2;38.8
49583;BME280;36329;48.816;44.624;2023-04-09T12:56:54;101873;;;15.2;38.4
49583;BME280;36329;48.816;44.624;2023-04-09T12:59:56;101876;;;15.1;38.3
49583;BME280;36329;48.816;44.624;2023-04-09T13:02:58;101873;;;15.2;38.4
49583;BME280;36329;48.816;44.624;2023-04-09T13:06:00;101868;;;14.9;38.6
49583;BME280;36329;48.816;44.624;2023-04-09T13:09:03;101867;;;15.1;37.7
49583;BME280;36329;48.816;44.624;2023-04-09T13:12:05;101868;;;15.2;37.2
49583;BME280;36329;48.816;44.624;2023-04-09T13:15:08;101864;;;15.2;37.2
49583;BME280;36329;48.816;44.624;2023-04-09T13:18:10;101864;;;15.1;37.3
49583;BME280;36329;48.816;44.624;2023-04-09T13:21:12;101857;;;15.1;37.4
49583;BME280;36329;48.816;44.624;2023-04-09T13:24:15;101857;;;15;37.7
49583;BME280;36329;48.816;44.624;2023-04-09T13:27:17;101854;;;15.1;37.2
49583;BME280;36329;48.816;44.624;2023-04-09T13:30:20;101844;;;15;37.1
49583;BME280;36329;48.816;44.624;2023-04-09T13:33:22;101851;;;15;37.2
49583;BME280;36329;48.816;44.624;2023-04-09T13:36:24;101848;;;15.1;37.4
49583;BME280;36329;48.816;44.624;2023-04-09T13:39:26;101848;;;14.9;37.8
49583;BME280;36329;48.816;44.624;2023-04-09T13:42:29;101848;;;15;37.9
49583;BME280;36329;48.816;44.624;2023-04-09T13:45:31;101847;;;15;37.3
49583;BME280;36329;48.816;44.624;2023-04-09T13:48:33;101845;;;15;37.1
49583;BME280;36329;48.816;44.624;2023-04-09T13:51:35;101848;;;14.8;37.3
49583;BME280;36329;48.816;44.624;2023-04-09T13:54:37;101845;;;14.6;37.5
49583;BME280;36329;48.816;44.624;2023-04-09T13:57:39;101849;;;14.6;37.5
49583;BME280;36329;48.816;44.624;2023-04-09T14:00:41;101845;;;14.4;38.3
49583;BME280;36329;48.816;44.624;2023-04-09T14:03:43;101847;;;14.3;38.1
49583;BME280;36329;48.816;44.624;2023-04-09T14:06:45;101848;;;14.1;38.5
49583;BME280;36329;48.816;44.624;2023-04-09T14:09:48;101845;;;14.2;38.5
49583;BME280;36329;48.816;44.624;2023-04-09T14:12:50;101843;;;14.3;38.5
49583;BME280;36329;48.816;44.624;2023-04-09T14:15:52;101841;;;14.4;38.4
49583;BME280;36329;48.816;44.624;2023-04-09T14:18:54;101840;;;14.5;37.9
49583;BME280;36329;48.816;44.624;2023-04-09T14:21:56;101843;;;14.5;37.9
49583;BME280;36329;48.816;44.624;2023-04-09T14:24:59;101839;;;14.4;38
49583;BME280;36329;48.816;44.624;2023-04-09T14:28:01;101841;;;14.3;38.2
49583;BME280;36329;48.816;44.624;2023-04-09T14:31:03;101834;;;14.2;38.2
49583;BME280;36329;48.816;44.624;2023-04-09T14:34:05;101834;;;14.3;38.3
49583;BME280;36329;48.816;44.624;2023-04-09T14:37:07;101831;;;14.2;38.4
49583;BME280;36329;48.816;44.624;2023-04-09T14:40:09;101837;;;14.1;38.7
49583;BME280;36329;48.816;44.624;2023-04-09T14:43:11;101838;;;14.1;38.7
49583;BME280;36329;48.816;44.624;2023-04-09T14:46:13;101834;;;14.1;38.8
49583;BME280;36329;48.816;44.624;2023-04-09T14:49:15;101831;;;14;38.9
49583;BME280;36329;48.816;44.624;2023-04-09T14:52:17;101830;;;14;39.5
49583;BME280;36329;48.816;44.624;2023-04-09T14:55:19;101833;;;14;39.3
49583;BME280;36329;48.816;44.624;2023-04-09T14:58:21;101836;;;14;39.2
49583;BME280;36329;48.816;44.624;2023-04-09T15:01:24;101834;;;13.9;39.2
49583;BME280;36329;48.816;44.624;2023-04-09T15:04:26;101829;;;13.9;39.5
49583;BME280;36329;48.816;44.624;2023-04-09T15:07:28;101835;;;13.9;39.8
49583;BME280;36329;48.816;44.624;2023-04-09T15:10:31;101829;;;14;39.9
49583;BME280;36329;48.816;44.624;2023-04-09T15:13:33;101830;;;14;40
49583;BME280;36329;48.816;44.624;2023-04-09T15:16:35;101833;;;14.1;40.5
49583;BME280;36329;48.816;44.624;2023-04-09T15:19:37;101834;;;14.1;40.2
49583;BME280;36329;48.816;44.624;2023-04-09T15:22:39;101839;;;14;40.3
49583;BME280;36329;48.816;44.624;2023-04-09T15:25:41;101834;;;13.9;40.4
49583;BME280;36329;48.816;44.624;2023-04-09T15:28:44;101838;;;13.8;40.2
49583;BME280;36329;48.816;44.624;2023-04-09T15:31:46;101835;;;13.8;40.2
49583;BME280;36329;48.816;44.624;2023-04-09T15:34:48;101828;;;13.7;40.3
49583;BME280;36329;48.816;44.624;2023-04-09T15:37:51;101830;;;13.7;40.6
49583;BME280;36329;48.816;44.624;2023-04-09T15:40:54;101829;;;13.6;40.7
49583;BME280;36329;48.816;44.624;2023-04-09T15:43:56;101837;;;13.6;40.7
49583;BME280;36329;48.816;44.624;2023-04-09T15:46:58;101836;;;13.5;40.5
49583;BME280;36329;48.816;44.624;2023-04-09T15:50:00;101832;;;13.4;41
49583;BME280;36329;48.816;44.624;2023-04-09T15:53:02;101833;;;13.3;41.3
49583;BME280;36329;48.816;44.624;2023-04-09T15:56:05;101836;;;13.3;41.6
49583;BME280;36329;48.816;44.624;2023-04-09T15:59:07;101839;;;13.4;41.7
49583;BME280;36329;48.816;44.624;2023-04-09T16:02:09;101838;;;13.4;42
49583;BME280;36329;48.816;44.624;2023-04-09T16:05:11;101836;;;13.4;41.6
49583;BME280;36329;48.816;44.624;2023-04-09T16:08:13;101835;;;13.3;42.1
49583;BME280;36329;48.816;44.624;2023-04-09T16:11:15;101843;;;13.3;42.2
49583;BME280;36329;48.816;44.624;2023-04-09T16:14:17;101839;;;13.3;42.1
49583;BME280;36329;48.816;44.624;2023-04-09T16:17:19;101846;;;13.3;42.5
49583;BME280;36329;48.816;44.624;2023-04-09T16:20:21;101847;;;13.3;42.2
49583;BME280;36329;48.816;44.624;2023-04-09T16:23:24;101853;;;13.3;42.3
49583;BME280;36329;48.816;44.624;2023-04-09T16:26:26;101845;;;13.3;42.1
49583;BME280;36329;48.816;44.624;2023-04-09T16:29:30;101850;;;13.3;42.1
49583;BME280;36329;48.816;44.624;2023-04-09T16:32:32;101849;;;13.3;42.3
49583;BME280;36329;48.816;44.624;2023-04-09T16:35:34;101846;;;13.2;42.8
49583;BME280;36329;48.816;44.624;2023-04-09T16:38:36;101846;;;13.3;42.9
49583;BME280;36329;48.816;44.624;2023-04-09T16:41:38;101847;;;13.2;42.9
49583;BME280;36329;48.816;44.624;2023-04-09T16:44:40;101847;;;13.1;43.1
49583;BME280;36329;48.816;44.624;2023-04-09T16:47:42;101858;;;13;43.3
49583;BME280;36329;48.816;44.624;2023-04-09T16:50:44;101851;;;12.9;43.5
49583;BME280;36329;48.816;44.624;2023-04-09T16:53:46;101856;;;12.9;44
49583;BME280;36329;48.816;44.624;2023-04-09T16:56:48;101854;;;12.9;43.8
49583;BME280;36329;48.816;44.624;2023-04-09T16:59:50;101854;;;12.8;44.1
49583;BME280;36329;48.816;44.624;2023-04-09T17:02:52;101853;;;12.7;44.3